sensor_id;sensor_type;location;lat;lon;timestamp;P1;durP1;ratioP1;P2;durP2;ratioP2
46925;SDS011;32667;48.248;-1.700;2023-04-25T00:00:26;0.30;;;0.30;;
46925;SDS011;32667;48.248;-1.700;2023-04-25T00:02:52;0.30;;;0.30;;
46925;SDS011;32667;48.248;-1.700;2023-04-25T00:05:17;0.30;;;0.30;;
46925;SDS011;32667;48.248;-1.700;2023-04-25T00:07:44;0.28;;;0.28;;
46925;SDS011;32667;48.248;-1.700;2023-04-25T00:10:11;0.20;;;0.20;;
46925;SDS011;32667;48.248;-1.700;2023-04-25T00:15:14;0.20;;;0.20;;
46925;SDS011;32667;48.248;-1.700;2023-04-25T00:17:41;0.28;;;0.28;;
46925;SDS011;32667;48.248;-1.700;2023-04-25T00:20:07;0.30;;;0.30;;
46925;SDS011;32667;48.248;-1.700;2023-04-25T00:22:36;0.30;;;0.30;;
46925;SDS011;32667;48.248;-1.700;2023-04-25T00:25:05;0.30;;;0.30;;
46925;SDS011;32667;48.248;-1.700;2023-04-25T00:27:31;0.30;;;0.30;;
46925;SDS011;32667;48.248;-1.700;2023-04-25T00:29:57;0.30;;;0.30;;
46925;SDS011;32667;48.248;-1.700;2023-04-25T00:35:36;0.30;;;0.30;;
46925;SDS011;32667;48.248;-1.700;2023-04-25T00:38:03;0.30;;;0.30;;
46925;SDS011;32667;48.248;-1.700;2023-04-25T00:40:29;0.30;;;0.30;;
46925;SDS011;32667;48.248;-1.700;2023-04-25T00:42:54;0.30;;;0.30;;
46925;SDS011;32667;48.248;-1.700;2023-04-25T00:45:20;0.30;;;0.30;;
46925;SDS011;32667;48.248;-1.700;2023-04-25T00:47:46;0.30;;;0.30;;
46925;SDS011;32667;48.248;-1.700;2023-04-25T00:50:12;0.30;;;0.30;;
46925;SDS011;32667;48.248;-1.700;2023-04-25T00:52:43;0.28;;;0.28;;
46925;SDS011;32667;48.248;-1.700;2023-04-25T00:55:10;0.30;;;0.30;;
46925;SDS011;32667;48.248;-1.700;2023-04-25T00:57:37;0.30;;;0.30;;
46925;SDS011;32667;48.248;-1.700;2023-04-25T01:00:04;0.30;;;0.30;;
46925;SDS011;32667;48.248;-1.700;2023-04-25T01:02:32;0.30;;;0.30;;
46925;SDS011;32667;48.248;-1.700;2023-04-25T01:04:58;0.30;;;0.30;;
46925;SDS011;32667;48.248;-1.700;2023-04-25T01:07:24;0.30;;;0.30;;
46925;SDS011;32667;48.248;-1.700;2023-04-25T01:09:51;0.30;;;0.30;;
46925;SDS011;32667;48.248;-1.700;2023-04-25T01:12:17;0.20;;;0.20;;
46925;SDS011;32667;48.248;-1.700;2023-04-25T01:14:43;0.30;;;0.30;;
46925;SDS011;32667;48.248;-1.700;2023-04-25T01:17:09;0.30;;;0.30;;
46925;SDS011;32667;48.248;-1.700;2023-04-25T01:19:35;0.30;;;0.30;;
46925;SDS011;32667;48.248;-1.700;2023-04-25T01:22:01;0.30;;;0.30;;
46925;SDS011;32667;48.248;-1.700;2023-04-25T01:24:33;0.30;;;0.30;;
46925;SDS011;32667;48.248;-1.700;2023-04-25T01:26:59;0.30;;;0.30;;
46925;SDS011;32667;48.248;-1.700;2023-04-25T01:29:26;0.30;;;0.30;;
46925;SDS011;32667;48.248;-1.700;2023-04-25T01:31:53;0.30;;;0.30;;
46925;SDS011;32667;48.248;-1.700;2023-04-25T01:34:19;0.28;;;0.28;;
46925;SDS011;32667;48.248;-1.700;2023-04-25T01:36:47;0.30;;;0.30;;
46925;SDS011;32667;48.248;-1.700;2023-04-25T01:39:17;0.30;;;0.30;;
46925;SDS011;32667;48.248;-1.700;2023-04-25T01:41:44;0.30;;;0.30;;
46925;SDS011;32667;48.248;-1.700;2023-04-25T01:44:11;0.30;;;0.30;;
46925;SDS011;32667;48.248;-1.700;2023-04-25T01:46:40;0.30;;;0.30;;
46925;SDS011;32667;48.248;-1.700;2023-04-25T01:49:06;0.30;;;0.30;;
46925;SDS011;32667;48.248;-1.700;2023-04-25T01:51:34;0.30;;;0.30;;
46925;SDS011;32667;48.248;-1.700;2023-04-25T01:54:00;0.30;;;0.30;;
46925;SDS011;32667;48.248;-1.700;2023-04-25T01:56:30;0.38;;;0.32;;
46925;SDS011;32667;48.248;-1.700;2023-04-25T01:58:57;0.30;;;0.30;;
46925;SDS011;32667;48.248;-1.700;2023-04-25T02:01:23;0.30;;;0.30;;
46925;SDS011;32667;48.248;-1.700;2023-04-25T02:03:49;0.30;;;0.30;;
46925;SDS011;32667;48.248;-1.700;2023-04-25T02:06:15;0.30;;;0.30;;
46925;SDS011;32667;48.248;-1.700;2023-04-25T02:08:40;0.30;;;0.30;;
46925;SDS011;32667;48.248;-1.700;2023-04-25T02:11:06;0.30;;;0.30;;
46925;SDS011;32667;48.248;-1.700;2023-04-25T02:13:32;0.30;;;0.30;;
46925;SDS011;32667;48.248;-1.700;2023-04-25T02:15:57;0.30;;;0.30;;
46925;SDS011;32667;48.248;-1.700;2023-04-25T02:18:23;0.20;;;0.20;;
46925;SDS011;32667;48.248;-1.700;2023-04-25T02:20:51;0.30;;;0.30;;
46925;SDS011;32667;48.248;-1.700;2023-04-25T02:23:17;0.30;;;0.30;;
46925;SDS011;32667;48.248;-1.700;2023-04-25T02:25:44;0.30;;;0.30;;
46925;SDS011;32667;48.248;-1.700;2023-04-25T02:28:12;0.30;;;0.30;;
46925;SDS011;32667;48.248;-1.700;2023-04-25T02:30:41;0.30;;;0.30;;
46925;SDS011;32667;48.248;-1.700;2023-04-25T02:33:06;0.30;;;0.30;;
46925;SDS011;32667;48.248;-1.700;2023-04-25T02:35:32;0.30;;;0.30;;
46925;SDS011;32667;48.248;-1.700;2023-04-25T02:37:58;0.30;;;0.30;;
46925;SDS011;32667;48.248;-1.700;2023-04-25T02:40:24;0.30;;;0.30;;
46925;SDS011;32667;48.248;-1.700;2023-04-25T02:42:49;0.30;;;0.30;;
46925;SDS011;32667;48.248;-1.700;2023-04-25T02:45:16;0.30;;;0.30;;
46925;SDS011;32667;48.248;-1.700;2023-04-25T02:47:42;0.30;;;0.30;;
46925;SDS011;32667;48.248;-1.700;2023-04-25T02:50:07;0.30;;;0.30;;
46925;SDS011;32667;48.248;-1.700;2023-04-25T02:52:33;0.30;;;0.30;;
46925;SDS011;32667;48.248;-1.700;2023-04-25T02:54:59;0.30;;;0.30;;
46925;SDS011;32667;48.248;-1.700;2023-04-25T02:57:25;0.30;;;0.30;;
46925;SDS011;32667;48.248;-1.700;2023-04-25T02:59:51;0.20;;;0.20;;
46925;SDS011;32667;48.248;-1.700;2023-04-25T03:02:16;0.30;;;0.30;;
46925;SDS011;32667;48.248;-1.700;2023-04-25T03:04:42;0.30;;;0.30;;
46925;SDS011;32667;48.248;-1.700;2023-04-25T03:07:08;0.40;;;0.38;;
46925;SDS011;32667;48.248;-1.700;2023-04-25T03:09:35;0.30;;;0.30;;
46925;SDS011;32667;48.248;-1.700;2023-04-25T03:12:00;0.30;;;0.30;;
46925;SDS011;32667;48.248;-1.700;2023-04-25T03:14:27;0.30;;;0.30;;
46925;SDS011;32667;48.248;-1.700;2023-04-25T03:16:52;0.30;;;0.30;;
46925;SDS011;32667;48.248;-1.700;2023-04-25T03:19:18;0.30;;;0.30;;
46925;SDS011;32667;48.248;-1.700;2023-04-25T03:21:45;0.50;;;0.30;;
46925;SDS011;32667;48.248;-1.700;2023-04-25T03:24:11;0.30;;;0.30;;
46925;SDS011;32667;48.248;-1.700;2023-04-25T03:26:36;0.30;;;0.30;;
46925;SDS011;32667;48.248;-1.700;2023-04-25T03:29:02;0.30;;;0.30;;
46925;SDS011;32667;48.248;-1.700;2023-04-25T03:31:28;0.30;;;0.30;;
46925;SDS011;32667;48.248;-1.700;2023-04-25T03:33:56;0.30;;;0.30;;
46925;SDS011;32667;48.248;-1.700;2023-04-25T03:36:21;0.20;;;0.20;;
46925;SDS011;32667;48.248;-1.700;2023-04-25T03:38:47;0.30;;;0.30;;
46925;SDS011;32667;48.248;-1.700;2023-04-25T03:41:13;0.30;;;0.30;;
46925;SDS011;32667;48.248;-1.700;2023-04-25T03:43:39;0.30;;;0.30;;
46925;SDS011;32667;48.248;-1.700;2023-04-25T03:46:05;0.40;;;0.40;;
46925;SDS011;32667;48.248;-1.700;2023-04-25T03:48:31;0.30;;;0.30;;
46925;SDS011;32667;48.248;-1.700;2023-04-25T03:50:56;0.30;;;0.30;;
46925;SDS011;32667;48.248;-1.700;2023-04-25T03:53:22;0.30;;;0.30;;
46925;SDS011;32667;48.248;-1.700;2023-04-25T03:55:48;0.30;;;0.30;;
46925;SDS011;32667;48.248;-1.700;2023-04-25T03:58:14;0.30;;;0.30;;
46925;SDS011;32667;48.248;-1.700;2023-04-25T04:00:42;0.30;;;0.30;;
46925;SDS011;32667;48.248;-1.700;2023-04-25T04:03:08;0.22;;;0.22;;
46925;SDS011;32667;48.248;-1.700;2023-04-25T04:05:33;0.30;;;0.30;;
46925;SDS011;32667;48.248;-1.700;2023-04-25T04:07:59;0.30;;;0.30;;
46925;SDS011;32667;48.248;-1.700;2023-04-25T04:10:25;0.30;;;0.30;;
46925;SDS011;32667;48.248;-1.700;2023-04-25T04:12:51;0.30;;;0.30;;
46925;SDS011;32667;48.248;-1.700;2023-04-25T04:15:19;0.30;;;0.30;;
46925;SDS011;32667;48.248;-1.700;2023-04-25T04:17:44;0.30;;;0.30;;
46925;SDS011;32667;48.248;-1.700;2023-04-25T04:20:11;0.30;;;0.30;;
46925;SDS011;32667;48.248;-1.700;2023-04-25T04:22:37;0.30;;;0.30;;
46925;SDS011;32667;48.248;-1.700;2023-04-25T04:25:03;0.30;;;0.30;;
46925;SDS011;32667;48.248;-1.700;2023-04-25T04:27:30;0.30;;;0.30;;
46925;SDS011;32667;48.248;-1.700;2023-04-25T04:29:57;0.30;;;0.30;;
46925;SDS011;32667;48.248;-1.700;2023-04-25T04:32:22;0.30;;;0.30;;
46925;SDS011;32667;48.248;-1.700;2023-04-25T04:34:49;0.30;;;0.30;;
46925;SDS011;32667;48.248;-1.700;2023-04-25T04:37:14;0.30;;;0.30;;
46925;SDS011;32667;48.248;-1.700;2023-04-25T04:39:40;0.30;;;0.30;;
46925;SDS011;32667;48.248;-1.700;2023-04-25T04:42:06;0.30;;;0.30;;
46925;SDS011;32667;48.248;-1.700;2023-04-25T04:44:32;0.20;;;0.20;;
46925;SDS011;32667;48.248;-1.700;2023-04-25T04:46:58;0.30;;;0.30;;
46925;SDS011;32667;48.248;-1.700;2023-04-25T04:49:24;0.30;;;0.30;;
46925;SDS011;32667;48.248;-1.700;2023-04-25T04:51:50;0.30;;;0.30;;
46925;SDS011;32667;48.248;-1.700;2023-04-25T04:54:15;0.30;;;0.30;;
46925;SDS011;32667;48.248;-1.700;2023-04-25T04:56:41;0.25;;;0.25;;
46925;SDS011;32667;48.248;-1.700;2023-04-25T04:59:07;0.20;;;0.20;;
46925;SDS011;32667;48.248;-1.700;2023-04-25T05:01:33;0.20;;;0.20;;
46925;SDS011;32667;48.248;-1.700;2023-04-25T05:04:02;0.30;;;0.30;;
46925;SDS011;32667;48.248;-1.700;2023-04-25T05:06:28;0.30;;;0.30;;
46925;SDS011;32667;48.248;-1.700;2023-04-25T05:08:55;0.30;;;0.30;;
46925;SDS011;32667;48.248;-1.700;2023-04-25T05:11:21;0.30;;;0.30;;
46925;SDS011;32667;48.248;-1.700;2023-04-25T05:13:48;0.20;;;0.20;;
46925;SDS011;32667;48.248;-1.700;2023-04-25T05:16:14;0.30;;;0.30;;
46925;SDS011;32667;48.248;-1.700;2023-04-25T05:18:40;0.30;;;0.30;;
46925;SDS011;32667;48.248;-1.700;2023-04-25T05:21:06;0.20;;;0.20;;
46925;SDS011;32667;48.248;-1.700;2023-04-25T05:23:35;0.20;;;0.20;;
46925;SDS011;32667;48.248;-1.700;2023-04-25T05:26:03;0.20;;;0.20;;
46925;SDS011;32667;48.248;-1.700;2023-04-25T05:28:29;0.20;;;0.20;;
46925;SDS011;32667;48.248;-1.700;2023-04-25T05:30:55;0.30;;;0.30;;
46925;SDS011;32667;48.248;-1.700;2023-04-25T05:33:23;0.30;;;0.30;;
46925;SDS011;32667;48.248;-1.700;2023-04-25T05:35:49;0.25;;;0.25;;
46925;SDS011;32667;48.248;-1.700;2023-04-25T05:38:15;0.20;;;0.20;;
46925;SDS011;32667;48.248;-1.700;2023-04-25T05:40:41;0.22;;;0.22;;
46925;SDS011;32667;48.248;-1.700;2023-04-25T05:43:06;0.30;;;0.30;;
46925;SDS011;32667;48.248;-1.700;2023-04-25T05:45:32;0.30;;;0.30;;
46925;SDS011;32667;48.248;-1.700;2023-04-25T05:47:58;0.30;;;0.30;;
46925;SDS011;32667;48.248;-1.700;2023-04-25T05:50:24;0.30;;;0.30;;
46925;SDS011;32667;48.248;-1.700;2023-04-25T05:52:50;0.30;;;0.30;;
46925;SDS011;32667;48.248;-1.700;2023-04-25T05:55:16;0.25;;;0.25;;
46925;SDS011;32667;48.248;-1.700;2023-04-25T05:57:42;0.30;;;0.30;;
46925;SDS011;32667;48.248;-1.700;2023-04-25T06:00:10;0.30;;;0.30;;
46925;SDS011;32667;48.248;-1.700;2023-04-25T06:02:41;0.20;;;0.20;;
46925;SDS011;32667;48.248;-1.700;2023-04-25T06:05:07;0.30;;;0.30;;
46925;SDS011;32667;48.248;-1.700;2023-04-25T06:07:35;0.30;;;0.30;;
46925;SDS011;32667;48.248;-1.700;2023-04-25T06:10:01;0.30;;;0.30;;
46925;SDS011;32667;48.248;-1.700;2023-04-25T06:12:34;0.30;;;0.30;;
46925;SDS011;32667;48.248;-1.700;2023-04-25T06:15:00;0.30;;;0.30;;
46925;SDS011;32667;48.248;-1.700;2023-04-25T06:17:26;0.30;;;0.30;;
46925;SDS011;32667;48.248;-1.700;2023-04-25T06:19:51;0.30;;;0.30;;
46925;SDS011;32667;48.248;-1.700;2023-04-25T06:22:18;0.30;;;0.30;;
46925;SDS011;32667;48.248;-1.700;2023-04-25T06:24:44;0.30;;;0.30;;
46925;SDS011;32667;48.248;-1.700;2023-04-25T06:27:10;0.30;;;0.30;;
46925;SDS011;32667;48.248;-1.700;2023-04-25T06:29:36;0.20;;;0.20;;
46925;SDS011;32667;48.248;-1.700;2023-04-25T06:32:03;0.30;;;0.30;;
46925;SDS011;32667;48.248;-1.700;2023-04-25T06:34:29;0.30;;;0.30;;
46925;SDS011;32667;48.248;-1.700;2023-04-25T06:36:55;0.20;;;0.20;;
46925;SDS011;32667;48.248;-1.700;2023-04-25T06:39:24;0.30;;;0.30;;
46925;SDS011;32667;48.248;-1.700;2023-04-25T06:41:50;0.30;;;0.30;;
46925;SDS011;32667;48.248;-1.700;2023-04-25T06:44:16;0.28;;;0.28;;
46925;SDS011;32667;48.248;-1.700;2023-04-25T06:46:42;0.30;;;0.30;;
46925;SDS011;32667;48.248;-1.700;2023-04-25T06:49:07;0.30;;;0.30;;
46925;SDS011;32667;48.248;-1.700;2023-04-25T06:51:33;0.30;;;0.30;;
46925;SDS011;32667;48.248;-1.700;2023-04-25T06:53:59;0.30;;;0.30;;
46925;SDS011;32667;48.248;-1.700;2023-04-25T06:56:25;0.20;;;0.20;;
46925;SDS011;32667;48.248;-1.700;2023-04-25T06:58:51;0.30;;;0.30;;
46925;SDS011;32667;48.248;-1.700;2023-04-25T07:01:16;0.30;;;0.30;;
46925;SDS011;32667;48.248;-1.700;2023-04-25T07:03:42;0.30;;;0.30;;
46925;SDS011;32667;48.248;-1.700;2023-04-25T07:06:10;0.25;;;0.25;;
46925;SDS011;32667;48.248;-1.700;2023-04-25T07:08:36;0.30;;;0.30;;
46925;SDS011;32667;48.248;-1.700;2023-04-25T07:11:02;0.28;;;0.28;;
46925;SDS011;32667;48.248;-1.700;2023-04-25T07:13:27;0.30;;;0.30;;
46925;SDS011;32667;48.248;-1.700;2023-04-25T07:15:53;0.30;;;0.30;;
46925;SDS011;32667;48.248;-1.700;2023-04-25T07:18:19;0.30;;;0.30;;
46925;SDS011;32667;48.248;-1.700;2023-04-25T07:20:45;0.20;;;0.20;;
46925;SDS011;32667;48.248;-1.700;2023-04-25T07:23:11;0.30;;;0.30;;
46925;SDS011;32667;48.248;-1.700;2023-04-25T07:25:37;0.30;;;0.30;;
46925;SDS011;32667;48.248;-1.700;2023-04-25T07:28:05;0.30;;;0.30;;
46925;SDS011;32667;48.248;-1.700;2023-04-25T07:30:35;0.30;;;0.30;;
46925;SDS011;32667;48.248;-1.700;2023-04-25T07:33:01;0.30;;;0.30;;
46925;SDS011;32667;48.248;-1.700;2023-04-25T07:35:31;0.30;;;0.30;;
46925;SDS011;32667;48.248;-1.700;2023-04-25T07:37:57;0.30;;;0.30;;
46925;SDS011;32667;48.248;-1.700;2023-04-25T07:40:26;0.20;;;0.20;;
46925;SDS011;32667;48.248;-1.700;2023-04-25T07:42:51;0.20;;;0.20;;
46925;SDS011;32667;48.248;-1.700;2023-04-25T07:45:17;0.20;;;0.20;;
46925;SDS011;32667;48.248;-1.700;2023-04-25T07:47:46;0.20;;;0.20;;
46925;SDS011;32667;48.248;-1.700;2023-04-25T07:50:12;0.30;;;0.30;;
46925;SDS011;32667;48.248;-1.700;2023-04-25T07:52:38;0.20;;;0.20;;
46925;SDS011;32667;48.248;-1.700;2023-04-25T07:55:04;0.30;;;0.30;;
46925;SDS011;32667;48.248;-1.700;2023-04-25T07:57:30;0.30;;;0.30;;
46925;SDS011;32667;48.248;-1.700;2023-04-25T07:59:56;0.30;;;0.30;;
46925;SDS011;32667;48.248;-1.700;2023-04-25T08:02:25;0.30;;;0.30;;
46925;SDS011;32667;48.248;-1.700;2023-04-25T08:04:53;0.20;;;0.20;;
46925;SDS011;32667;48.248;-1.700;2023-04-25T08:07:19;0.20;;;0.20;;
46925;SDS011;32667;48.248;-1.700;2023-04-25T08:09:44;0.20;;;0.20;;
46925;SDS011;32667;48.248;-1.700;2023-04-25T08:12:10;0.20;;;0.20;;
46925;SDS011;32667;48.248;-1.700;2023-04-25T08:14:36;0.20;;;0.20;;
46925;SDS011;32667;48.248;-1.700;2023-04-25T08:17:04;0.20;;;0.20;;
46925;SDS011;32667;48.248;-1.700;2023-04-25T08:19:30;0.30;;;0.30;;
46925;SDS011;32667;48.248;-1.700;2023-04-25T08:21:56;0.20;;;0.20;;
46925;SDS011;32667;48.248;-1.700;2023-04-25T08:24:22;0.25;;;0.25;;
46925;SDS011;32667;48.248;-1.700;2023-04-25T08:26:48;0.20;;;0.20;;
46925;SDS011;32667;48.248;-1.700;2023-04-25T08:29:14;0.20;;;0.20;;
46925;SDS011;32667;48.248;-1.700;2023-04-25T08:31:40;0.20;;;0.20;;
46925;SDS011;32667;48.248;-1.700;2023-04-25T08:34:06;0.25;;;0.25;;
46925;SDS011;32667;48.248;-1.700;2023-04-25T08:36:31;0.20;;;0.20;;
46925;SDS011;32667;48.248;-1.700;2023-04-25T08:38:58;0.30;;;0.30;;
46925;SDS011;32667;48.248;-1.700;2023-04-25T08:41:23;0.20;;;0.20;;
46925;SDS011;32667;48.248;-1.700;2023-04-25T08:43:50;0.20;;;0.20;;
46925;SDS011;32667;48.248;-1.700;2023-04-25T08:46:20;0.20;;;0.20;;
46925;SDS011;32667;48.248;-1.700;2023-04-25T08:48:46;0.20;;;0.20;;
46925;SDS011;32667;48.248;-1.700;2023-04-25T08:51:24;0.20;;;0.20;;
46925;SDS011;32667;48.248;-1.700;2023-04-25T08:53:52;0.20;;;0.20;;
46925;SDS011;32667;48.248;-1.700;2023-04-25T08:56:18;0.20;;;0.20;;
46925;SDS011;32667;48.248;-1.700;2023-04-25T08:58:50;0.20;;;0.20;;
46925;SDS011;32667;48.248;-1.700;2023-04-25T09:01:23;0.20;;;0.20;;
46925;SDS011;32667;48.248;-1.700;2023-04-25T09:03:50;0.20;;;0.20;;
46925;SDS011;32667;48.248;-1.700;2023-04-25T09:06:16;0.20;;;0.20;;
46925;SDS011;32667;48.248;-1.700;2023-04-25T09:08:43;0.20;;;0.20;;
46925;SDS011;32667;48.248;-1.700;2023-04-25T09:11:08;0.20;;;0.20;;
46925;SDS011;32667;48.248;-1.700;2023-04-25T09:13:34;0.20;;;0.20;;
46925;SDS011;32667;48.248;-1.700;2023-04-25T09:16:00;0.30;;;0.30;;
46925;SDS011;32667;48.248;-1.700;2023-04-25T09:18:30;0.20;;;0.20;;
46925;SDS011;32667;48.248;-1.700;2023-04-25T09:21:09;0.20;;;0.20;;
46925;SDS011;32667;48.248;-1.700;2023-04-25T09:23:54;0.28;;;0.28;;
46925;SDS011;32667;48.248;-1.700;2023-04-25T09:26:22;0.20;;;0.20;;
46925;SDS011;32667;48.248;-1.700;2023-04-25T09:28:48;0.30;;;0.30;;
46925;SDS011;32667;48.248;-1.700;2023-04-25T09:31:21;0.20;;;0.20;;
46925;SDS011;32667;48.248;-1.700;2023-04-25T09:33:49;0.20;;;0.20;;
46925;SDS011;32667;48.248;-1.700;2023-04-25T09:36:17;0.20;;;0.20;;
46925;SDS011;32667;48.248;-1.700;2023-04-25T09:38:44;0.20;;;0.20;;
46925;SDS011;32667;48.248;-1.700;2023-04-25T09:41:11;0.20;;;0.20;;
46925;SDS011;32667;48.248;-1.700;2023-04-25T09:43:37;0.20;;;0.20;;
46925;SDS011;32667;48.248;-1.700;2023-04-25T09:46:10;0.20;;;0.20;;
46925;SDS011;32667;48.248;-1.700;2023-04-25T09:48:36;0.25;;;0.25;;
46925;SDS011;32667;48.248;-1.700;2023-04-25T09:53:37;0.10;;;0.10;;
46925;SDS011;32667;48.248;-1.700;2023-04-25T09:56:04;0.20;;;0.20;;
46925;SDS011;32667;48.248;-1.700;2023-04-25T09:58:31;0.20;;;0.20;;
46925;SDS011;32667;48.248;-1.700;2023-04-25T10:01:03;0.20;;;0.20;;
46925;SDS011;32667;48.248;-1.700;2023-04-25T10:03:38;0.20;;;0.20;;
46925;SDS011;32667;48.248;-1.700;2023-04-25T10:06:09;0.20;;;0.20;;
46925;SDS011;32667;48.248;-1.700;2023-04-25T10:08:43;0.20;;;0.20;;
46925;SDS011;32667;48.248;-1.700;2023-04-25T10:11:14;0.20;;;0.20;;
46925;SDS011;32667;48.248;-1.700;2023-04-25T10:13:41;0.20;;;0.20;;
46925;SDS011;32667;48.248;-1.700;2023-04-25T10:16:07;0.10;;;0.10;;
46925;SDS011;32667;48.248;-1.700;2023-04-25T10:18:33;0.13;;;0.13;;
46925;SDS011;32667;48.248;-1.700;2023-04-25T10:21:01;0.20;;;0.20;;
46925;SDS011;32667;48.248;-1.700;2023-04-25T10:23:29;0.20;;;0.20;;
46925;SDS011;32667;48.248;-1.700;2023-04-25T10:25:56;0.20;;;0.20;;
46925;SDS011;32667;48.248;-1.700;2023-04-25T10:28:22;0.20;;;0.20;;
46925;SDS011;32667;48.248;-1.700;2023-04-25T10:31:00;0.10;;;0.10;;
46925;SDS011;32667;48.248;-1.700;2023-04-25T10:38:37;0.20;;;0.20;;
46925;SDS011;32667;48.248;-1.700;2023-04-25T10:41:04;0.20;;;0.20;;
46925;SDS011;32667;48.248;-1.700;2023-04-25T10:43:42;0.20;;;0.20;;
46925;SDS011;32667;48.248;-1.700;2023-04-25T10:46:16;0.20;;;0.20;;
46925;SDS011;32667;48.248;-1.700;2023-04-25T10:48:47;0.20;;;0.20;;
46925;SDS011;32667;48.248;-1.700;2023-04-25T10:53:46;0.20;;;0.20;;
46925;SDS011;32667;48.248;-1.700;2023-04-25T10:56:23;0.20;;;0.20;;
46925;SDS011;32667;48.248;-1.700;2023-04-25T10:58:51;0.20;;;0.20;;
46925;SDS011;32667;48.248;-1.700;2023-04-25T11:01:27;0.20;;;0.20;;
46925;SDS011;32667;48.248;-1.700;2023-04-25T11:04:23;0.20;;;0.20;;
46925;SDS011;32667;48.248;-1.700;2023-04-25T11:09:39;0.20;;;0.20;;
46925;SDS011;32667;48.248;-1.700;2023-04-25T11:12:07;0.20;;;0.20;;
46925;SDS011;32667;48.248;-1.700;2023-04-25T11:14:36;0.10;;;0.10;;
46925;SDS011;32667;48.248;-1.700;2023-04-25T11:17:02;0.17;;;0.17;;
46925;SDS011;32667;48.248;-1.700;2023-04-25T11:19:28;0.30;;;0.30;;
46925;SDS011;32667;48.248;-1.700;2023-04-25T11:21:54;0.20;;;0.20;;
46925;SDS011;32667;48.248;-1.700;2023-04-25T11:24:25;0.10;;;0.10;;
46925;SDS011;32667;48.248;-1.700;2023-04-25T11:26:54;0.13;;;0.13;;
46925;SDS011;32667;48.248;-1.700;2023-04-25T11:29:26;0.20;;;0.20;;
46925;SDS011;32667;48.248;-1.700;2023-04-25T11:31:52;0.20;;;0.20;;
46925;SDS011;32667;48.248;-1.700;2023-04-25T11:34:21;0.20;;;0.20;;
46925;SDS011;32667;48.248;-1.700;2023-04-25T11:36:48;0.20;;;0.20;;
46925;SDS011;32667;48.248;-1.700;2023-04-25T11:39:14;0.10;;;0.10;;
46925;SDS011;32667;48.248;-1.700;2023-04-25T11:41:40;0.20;;;0.20;;
46925;SDS011;32667;48.248;-1.700;2023-04-25T11:44:07;0.10;;;0.10;;
46925;SDS011;32667;48.248;-1.700;2023-04-25T11:46:45;0.20;;;0.20;;
46925;SDS011;32667;48.248;-1.700;2023-04-25T11:49:11;0.10;;;0.10;;
46925;SDS011;32667;48.248;-1.700;2023-04-25T11:51:44;0.20;;;0.20;;
46925;SDS011;32667;48.248;-1.700;2023-04-25T11:54:11;0.20;;;0.20;;
46925;SDS011;32667;48.248;-1.700;2023-04-25T11:56:40;0.20;;;0.20;;
46925;SDS011;32667;48.248;-1.700;2023-04-25T11:59:10;0.20;;;0.20;;
46925;SDS011;32667;48.248;-1.700;2023-04-25T12:01:38;0.20;;;0.20;;
46925;SDS011;32667;48.248;-1.700;2023-04-25T12:04:12;0.20;;;0.20;;
46925;SDS011;32667;48.248;-1.700;2023-04-25T12:06:40;0.20;;;0.20;;
46925;SDS011;32667;48.248;-1.700;2023-04-25T12:09:07;0.20;;;0.20;;
46925;SDS011;32667;48.248;-1.700;2023-04-25T12:14:36;0.20;;;0.20;;
46925;SDS011;32667;48.248;-1.700;2023-04-25T12:17:03;0.10;;;0.10;;
46925;SDS011;32667;48.248;-1.700;2023-04-25T12:19:32;0.20;;;0.20;;
46925;SDS011;32667;48.248;-1.700;2023-04-25T12:21:59;0.20;;;0.20;;
46925;SDS011;32667;48.248;-1.700;2023-04-25T12:24:26;0.20;;;0.20;;
46925;SDS011;32667;48.248;-1.700;2023-04-25T12:26:59;0.20;;;0.20;;
46925;SDS011;32667;48.248;-1.700;2023-04-25T12:29:29;0.20;;;0.20;;
46925;SDS011;32667;48.248;-1.700;2023-04-25T12:31:56;0.10;;;0.10;;
46925;SDS011;32667;48.248;-1.700;2023-04-25T12:34:23;0.10;;;0.10;;
46925;SDS011;32667;48.248;-1.700;2023-04-25T12:36:50;0.20;;;0.20;;
46925;SDS011;32667;48.248;-1.700;2023-04-25T12:39:21;0.20;;;0.20;;
46925;SDS011;32667;48.248;-1.700;2023-04-25T12:41:48;0.20;;;0.20;;
46925;SDS011;32667;48.248;-1.700;2023-04-25T12:44:20;0.20;;;0.20;;
46925;SDS011;32667;48.248;-1.700;2023-04-25T12:46:46;0.20;;;0.20;;
46925;SDS011;32667;48.248;-1.700;2023-04-25T12:49:13;0.20;;;0.20;;
46925;SDS011;32667;48.248;-1.700;2023-04-25T12:51:39;0.10;;;0.10;;
46925;SDS011;32667;48.248;-1.700;2023-04-25T12:54:06;0.10;;;0.10;;
46925;SDS011;32667;48.248;-1.700;2023-04-25T12:56:33;0.20;;;0.20;;
46925;SDS011;32667;48.248;-1.700;2023-04-25T12:59:00;0.20;;;0.20;;
46925;SDS011;32667;48.248;-1.700;2023-04-25T13:01:26;0.10;;;0.10;;
46925;SDS011;32667;48.248;-1.700;2023-04-25T13:03:52;0.20;;;0.20;;
46925;SDS011;32667;48.248;-1.700;2023-04-25T13:06:18;0.20;;;0.20;;
46925;SDS011;32667;48.248;-1.700;2023-04-25T13:08:44;0.20;;;0.20;;
46925;SDS011;32667;48.248;-1.700;2023-04-25T13:11:10;0.20;;;0.20;;
46925;SDS011;32667;48.248;-1.700;2023-04-25T13:13:36;0.20;;;0.20;;
46925;SDS011;32667;48.248;-1.700;2023-04-25T13:16:05;0.20;;;0.20;;
46925;SDS011;32667;48.248;-1.700;2023-04-25T13:18:32;0.20;;;0.20;;
46925;SDS011;32667;48.248;-1.700;2023-04-25T13:20:58;0.20;;;0.20;;
46925;SDS011;32667;48.248;-1.700;2023-04-25T13:23:25;0.17;;;0.17;;
46925;SDS011;32667;48.248;-1.700;2023-04-25T13:25:53;0.20;;;0.20;;
46925;SDS011;32667;48.248;-1.700;2023-04-25T13:28:22;0.20;;;0.20;;
46925;SDS011;32667;48.248;-1.700;2023-04-25T13:30:49;0.20;;;0.20;;
46925;SDS011;32667;48.248;-1.700;2023-04-25T13:33:15;0.20;;;0.20;;
46925;SDS011;32667;48.248;-1.700;2023-04-25T13:35:41;0.17;;;0.17;;
46925;SDS011;32667;48.248;-1.700;2023-04-25T13:38:08;0.20;;;0.20;;
46925;SDS011;32667;48.248;-1.700;2023-04-25T13:40:34;0.13;;;0.13;;
46925;SDS011;32667;48.248;-1.700;2023-04-25T13:43:00;0.10;;;0.10;;
46925;SDS011;32667;48.248;-1.700;2023-04-25T13:45:28;0.17;;;0.17;;
46925;SDS011;32667;48.248;-1.700;2023-04-25T13:47:54;0.10;;;0.10;;
46925;SDS011;32667;48.248;-1.700;2023-04-25T13:50:20;0.10;;;0.10;;
46925;SDS011;32667;48.248;-1.700;2023-04-25T13:52:46;0.20;;;0.20;;
46925;SDS011;32667;48.248;-1.700;2023-04-25T13:55:12;0.10;;;0.10;;
46925;SDS011;32667;48.248;-1.700;2023-04-25T13:57:37;0.10;;;0.10;;
46925;SDS011;32667;48.248;-1.700;2023-04-25T14:00:03;0.20;;;0.20;;
46925;SDS011;32667;48.248;-1.700;2023-04-25T14:02:36;0.20;;;0.20;;
46925;SDS011;32667;48.248;-1.700;2023-04-25T14:05:06;0.10;;;0.10;;
46925;SDS011;32667;48.248;-1.700;2023-04-25T14:07:36;0.20;;;0.20;;
46925;SDS011;32667;48.248;-1.700;2023-04-25T14:10:02;0.20;;;0.20;;
46925;SDS011;32667;48.248;-1.700;2023-04-25T14:12:29;0.10;;;0.10;;
46925;SDS011;32667;48.248;-1.700;2023-04-25T14:14:55;0.20;;;0.20;;
46925;SDS011;32667;48.248;-1.700;2023-04-25T14:17:23;0.20;;;0.20;;
46925;SDS011;32667;48.248;-1.700;2023-04-25T14:19:49;0.10;;;0.10;;
46925;SDS011;32667;48.248;-1.700;2023-04-25T14:22:15;0.10;;;0.10;;
46925;SDS011;32667;48.248;-1.700;2023-04-25T14:24:41;0.20;;;0.20;;
46925;SDS011;32667;48.248;-1.700;2023-04-25T14:27:07;0.20;;;0.20;;
46925;SDS011;32667;48.248;-1.700;2023-04-25T14:29:34;0.10;;;0.10;;
46925;SDS011;32667;48.248;-1.700;2023-04-25T14:32:00;0.20;;;0.20;;
46925;SDS011;32667;48.248;-1.700;2023-04-25T14:34:27;0.20;;;0.20;;
46925;SDS011;32667;48.248;-1.700;2023-04-25T14:36:53;0.20;;;0.20;;
46925;SDS011;32667;48.248;-1.700;2023-04-25T14:39:18;0.20;;;0.20;;
46925;SDS011;32667;48.248;-1.700;2023-04-25T14:41:45;0.10;;;0.10;;
46925;SDS011;32667;48.248;-1.700;2023-04-25T14:44:13;0.10;;;0.10;;
46925;SDS011;32667;48.248;-1.700;2023-04-25T14:46:38;0.20;;;0.20;;
46925;SDS011;32667;48.248;-1.700;2023-04-25T14:49:04;0.10;;;0.10;;
46925;SDS011;32667;48.248;-1.700;2023-04-25T14:51:30;0.20;;;0.20;;
46925;SDS011;32667;48.248;-1.700;2023-04-25T14:53:56;0.10;;;0.10;;